Time;durP1;ratioP1;P1;durP2;ratioP2;P2;SDS_P1;SDS_P2;PMS_P1;PMS_P2;Temp;Humidity;BMP_temperature;BMP_pressure;BME280_temperature;BME280_humidity;BME280_pressure;Samples;Min_cycle;Max_cycle;Signal;HPM_P1;HPM_P2
2023/03/11 00:01:39;;;;;;;8.80;7.88;;;4.70;48.50;;;;;;4993607;28;20054;-80
2023/03/11 00:04:06;;;;;;;8.98;7.32;;;4.70;48.50;;;;;;4997132;28;20049;-82
2023/03/11 00:06:36;;;;;;;10.43;8.45;;;4.70;48.60;;;;;;4990818;28;20589;-82
2023/03/11 00:09:03;;;;;;;9.68;7.88;;;4.70;48.70;;;;;;4981780;28;20042;-81
2023/03/11 00:11:29;;;;;;;10.65;7.03;;;4.70;48.70;;;;;;4995081;28;20297;-81
2023/03/11 00:13:55;;;;;;;8.15;7.35;;;4.70;48.70;;;;;;4988470;28;20113;-82
2023/03/11 00:16:21;;;;;;;7.80;6.57;;;4.70;48.80;;;;;;4998616;28;20054;-82
2023/03/11 00:18:50;;;;;;;11.05;8.15;;;4.60;49.20;;;;;;4988391;28;20081;-81
2023/03/11 00:21:17;;;;;;;8.50;7.22;;;4.60;48.80;;;;;;4999649;28;20029;-83
2023/03/11 00:23:44;;;;;;;9.13;8.05;;;4.60;48.80;;;;;;4989183;28;20120;-83
2023/03/11 00:26:10;;;;;;;11.13;8.13;;;4.60;48.80;;;;;;4987093;28;20026;-83
2023/03/11 00:28:36;;;;;;;9.07;7.97;;;4.60;48.90;;;;;;4989105;28;20031;-80
2023/03/11 00:31:03;;;;;;;9.48;8.32;;;4.60;48.90;;;;;;4989205;28;20049;-81
2023/03/11 00:33:29;;;;;;;9.50;7.60;;;4.50;48.70;;;;;;4969325;28;20109;-81
2023/03/11 00:35:55;;;;;;;11.15;8.65;;;4.50;48.80;;;;;;4982142;28;20447;-81
2023/03/11 00:38:21;;;;;;;10.30;8.20;;;4.50;48.90;;;;;;4983571;28;20458;-80
2023/03/11 00:40:48;;;;;;;8.20;7.05;;;4.50;48.90;;;;;;4987873;28;20065;-80
2023/03/11 00:43:14;;;;;;;11.88;8.63;;;4.40;48.80;;;;;;4986514;28;20022;-79
2023/03/11 00:45:41;;;;;;;11.20;8.00;;;4.50;49.10;;;;;;4983949;28;20374;-82
2023/03/11 00:48:07;;;;;;;11.13;8.18;;;4.40;48.90;;;;;;4982704;28;20046;-82
2023/03/11 00:50:36;;;;;;;10.20;8.35;;;4.40;49.00;;;;;;4978785;28;20038;-83
2023/03/11 00:53:03;;;;;;;8.77;7.80;;;4.40;49.00;;;;;;4972181;28;20026;-83
2023/03/11 00:55:32;;;;;;;9.30;7.40;;;4.40;49.00;;;;;;4986867;28;20129;-84
2023/03/11 00:58:02;;;;;;;11.70;8.85;;;4.40;49.00;;;;;;4987378;28;20038;-84
2023/03/11 01:00:35;;;;;;;10.68;7.65;;;4.40;49.10;;;;;;4976999;28;20038;-84
2023/03/11 01:03:02;;;;;;;9.85;8.45;;;4.40;49.10;;;;;;4967380;28;20108;-84
2023/03/11 01:05:30;;;;;;;9.55;8.10;;;4.40;49.10;;;;;;4987917;28;20814;-86
2023/03/11 01:07:57;;;;;;;8.75;7.85;;;4.40;49.10;;;;;;4966586;28;20037;-85
2023/03/11 01:10:23;;;;;;;9.50;8.45;;;4.40;49.20;;;;;;4993159;28;20042;-85
2023/03/11 01:12:50;;;;;;;9.63;8.43;;;4.30;49.10;;;;;;4990429;28;20050;-83
2023/03/11 01:15:28;;;;;;;10.15;7.78;;;4.30;49.10;;;;;;4997209;28;20030;-84
2023/03/11 01:17:55;;;;;;;9.48;7.70;;;4.30;49.20;;;;;;4990810;28;20031;-83
2023/03/11 01:20:21;;;;;;;10.68;8.05;;;4.30;49.10;;;;;;4987317;28;20324;-83
2023/03/11 01:22:48;;;;;;;9.35;7.75;;;4.30;49.20;;;;;;4988356;28;20045;-85
2023/03/11 01:25:16;;;;;;;10.25;8.43;;;4.30;49.20;;;;;;4988161;28;20494;-83
2023/03/11 01:27:43;;;;;;;10.25;8.50;;;4.30;49.30;;;;;;4990568;28;20113;-83
2023/03/11 01:30:14;;;;;;;9.52;8.45;;;4.30;49.30;;;;;;4995456;28;20034;-83
2023/03/11 01:32:40;;;;;;;8.98;8.13;;;4.20;49.20;;;;;;4986836;28;20379;-82
2023/03/11 01:35:06;;;;;;;11.65;9.00;;;4.20;49.20;;;;;;4987085;28;20038;-82
2023/03/11 01:37:32;;;;;;;9.65;8.57;;;4.20;49.20;;;;;;4999458;28;20058;-83
2023/03/11 01:39:59;;;;;;;11.90;9.32;;;4.20;49.30;;;;;;4989717;28;20111;-83
2023/03/11 01:42:28;;;;;;;9.40;8.32;;;4.20;49.30;;;;;;4992978;28;20526;-84
2023/03/11 01:44:55;;;;;;;10.23;9.23;;;4.20;49.40;;;;;;4988079;28;20050;-83
2023/03/11 01:47:34;;;;;;;11.88;9.00;;;4.20;49.40;;;;;;4986870;28;20050;-81
2023/03/11 01:50:04;;;;;;;9.60;8.43;;;4.10;49.30;;;;;;4994374;28;20115;-82
2023/03/11 01:52:32;;;;;;;9.98;8.80;;;4.10;49.30;;;;;;4987208;28;20034;-83
2023/03/11 01:54:58;;;;;;;9.35;8.25;;;4.10;49.30;;;;;;4986088;28;20098;-83
2023/03/11 01:57:24;;;;;;;10.40;8.55;;;4.10;49.40;;;;;;4969645;28;20514;-79
2023/03/11 01:59:54;;;;;;;10.07;8.32;;;4.00;49.20;;;;;;4989837;28;20096;-81
2023/03/11 02:02:27;;;;;;;9.98;9.00;;;4.10;49.50;;;;;;4989691;28;20504;-81
2023/03/11 02:04:53;;;;;;;9.70;8.70;;;4.00;49.30;;;;;;4985733;28;20292;-83
2023/03/11 02:07:22;;;;;;;10.88;9.02;;;4.00;49.30;;;;;;4983492;28;20038;-84
2023/03/11 02:09:49;;;;;;;11.13;8.73;;;4.00;49.30;;;;;;4990330;28;20034;-85
2023/03/11 02:12:16;;;;;;;9.73;8.60;;;4.00;49.40;;;;;;4989581;28;20540;-80
2023/03/11 02:14:47;;;;;;;9.75;8.75;;;4.00;49.40;;;;;;4995585;28;20022;-85
2023/03/11 02:17:13;;;;;;;11.80;8.82;;;4.00;49.50;;;;;;4989695;28;20448;-84
2023/03/11 02:20:13;;;;;;;11.15;8.25;;;3.90;49.30;;;;;;4984460;28;20284;-86
2023/03/11 02:22:41;;;;;;;9.88;8.90;;;3.90;49.40;;;;;;4978743;28;20038;-84
2023/03/11 02:25:11;;;;;;;9.40;8.48;;;3.90;49.40;;;;;;4986310;28;20065;-83
2023/03/11 02:27:40;;;;;;;10.45;8.20;;;3.90;49.40;;;;;;5006727;28;20034;-84
2023/03/11 02:30:10;;;;;;;12.50;8.15;;;3.90;49.40;;;;;;4986308;28;20046;-83
2023/03/11 02:32:38;;;;;;;10.07;8.38;;;3.90;49.50;;;;;;4987151;28;20034;-87
2023/03/11 02:35:05;;;;;;;8.63;7.82;;;3.90;49.50;;;;;;4969376;28;20038;-88
2023/03/11 02:37:31;;;;;;;12.18;8.35;;;3.90;49.50;;;;;;4986402;28;20040;-88
2023/03/11 02:40:33;;;;;;;10.10;8.15;;;3.90;49.60;;;;;;4985072;28;20043;-89
2023/03/11 02:43:09;;;;;;;9.35;8.43;;;3.90;49.60;;;;;;4984621;28;20088;-88
2023/03/11 02:45:38;;;;;;;8.63;7.72;;;3.90;49.50;;;;;;4969595;28;20034;-87
2023/03/11 02:48:07;;;;;;;8.80;7.65;;;3.90;49.50;;;;;;4984567;28;20113;-86
2023/03/11 02:50:36;;;;;;;8.70;7.90;;;3.90;49.60;;;;;;4975646;28;20117;-84
2023/03/11 02:53:04;;;;;;;8.93;7.75;;;3.90;49.50;;;;;;4988870;28;20244;-87
2023/03/11 02:55:30;;;;;;;8.65;7.85;;;3.90;49.60;;;;;;4989957;28;20030;-86
2023/03/11 02:57:56;;;;;;;8.55;7.70;;;3.90;49.60;;;;;;4971457;28;20438;-86
2023/03/11 03:00:22;;;;;;;8.25;7.55;;;3.90;49.50;;;;;;5002055;28;20498;-87
2023/03/11 03:03:00;;;;;;;8.90;7.90;;;4.00;49.80;;;;;;4988855;28;20058;-87
2023/03/11 03:05:27;;;;;;;8.98;8.07;;;3.90;49.60;;;;;;4987696;28;20034;-86
2023/03/11 03:07:55;;;;;;;9.20;8.32;;;4.00;49.80;;;;;;4972631;28;20035;-84
2023/03/11 03:10:23;;;;;;;8.15;7.18;;;4.00;49.80;;;;;;4990381;28;20110;-86
2023/03/11 03:12:49;;;;;;;12.07;8.07;;;4.00;49.90;;;;;;4988952;28;20038;-85
2023/03/11 03:15:15;;;;;;;8.70;7.80;;;3.90;49.60;;;;;;4996358;28;20521;-85
2023/03/11 03:17:43;;;;;;;10.50;8.30;;;4.00;49.90;;;;;;4993300;28;20053;-85
2023/03/11 03:20:11;;;;;;;9.77;8.73;;;4.00;49.90;;;;;;4993096;28;20280;-83
2023/03/11 03:22:40;;;;;;;8.95;8.15;;;4.00;49.90;;;;;;4989081;28;20034;-84
2023/03/11 03:25:09;;;;;;;8.52;7.75;;;4.00;49.90;;;;;;4986422;28;20112;-84
2023/03/11 03:27:38;;;;;;;9.65;8.65;;;4.00;49.90;;;;;;4985539;28;20027;-85
2023/03/11 03:30:07;;;;;;;8.68;7.88;;;4.00;49.90;;;;;;4987341;28;20080;-86
2023/03/11 03:32:35;;;;;;;9.52;8.52;;;4.10;50.10;;;;;;4989844;28;20117;-86
2023/03/11 03:35:02;;;;;;;10.02;9.10;;;4.10;50.10;;;;;;4990924;28;20026;-86
2023/03/11 03:37:49;;;;;;;8.80;8.00;;;4.10;50.60;;;;;;4984034;28;20038;-86
2023/03/11 03:40:15;;;;;;;9.40;8.50;;;4.10;50.00;;;;;;4988634;28;20034;-88
2023/03/11 03:42:42;;;;;;;9.05;8.15;;;4.10;50.00;;;;;;4972814;28;20109;-88
2023/03/11 03:45:09;;;;;;;9.60;8.68;;;4.10;50.00;;;;;;4987531;28;20072;-86
2023/03/11 03:47:35;;;;;;;10.60;8.98;;;4.20;50.20;;;;;;4987973;28;20066;-87
2023/03/11 03:50:03;;;;;;;10.15;9.25;;;4.10;49.90;;;;;;4987937;28;20053;-86
2023/03/11 03:52:29;;;;;;;10.18;9.10;;;4.10;50.00;;;;;;4989925;28;20048;-90
2023/03/11 03:54:56;;;;;;;9.32;8.35;;;4.10;50.00;;;;;;4980458;28;20026;-87
2023/03/11 03:57:22;;;;;;;9.13;8.32;;;4.20;50.20;;;;;;4997246;28;20038;-86
2023/03/11 03:59:48;;;;;;;9.90;8.88;;;4.20;50.20;;;;;;4994622;28;20120;-84
2023/03/11 04:02:14;;;;;;;9.18;8.35;;;4.20;50.20;;;;;;4992151;28;20122;-84
2023/03/11 04:04:41;;;;;;;7.95;7.28;;;4.20;50.20;;;;;;4996553;28;20038;-85
2023/03/11 04:07:09;;;;;;;9.05;8.02;;;4.20;50.20;;;;;;4979918;28;20073;-86
2023/03/11 04:09:38;;;;;;;8.98;8.13;;;4.20;50.20;;;;;;4987936;28;20042;-85
2023/03/11 04:12:05;;;;;;;8.90;7.97;;;4.20;50.20;;;;;;4987396;28;20039;-87
2023/03/11 04:14:33;;;;;;;10.82;7.97;;;4.20;50.20;;;;;;4987293;28;20041;-85
2023/03/11 04:17:00;;;;;;;9.73;8.32;;;4.20;50.20;;;;;;4993180;28;20317;-84
2023/03/11 04:19:26;;;;;;;7.85;7.05;;;4.20;50.20;;;;;;4992094;28;20129;-82
2023/03/11 04:21:55;;;;;;;8.15;7.43;;;4.20;50.20;;;;;;4981993;28;20138;-79
2023/03/11 04:24:23;;;;;;;8.13;7.35;;;4.20;50.20;;;;;;4984517;28;20026;-79
2023/03/11 04:26:50;;;;;;;7.70;7.00;;;4.30;50.30;;;;;;4985865;28;20038;-79
2023/03/11 04:29:17;;;;;;;9.15;7.30;;;4.30;50.30;;;;;;4993598;28;20034;-82
2023/03/11 04:31:48;;;;;;;7.75;6.95;;;4.30;50.30;;;;;;4987067;28;20026;-85
2023/03/11 04:34:14;;;;;;;8.15;7.18;;;4.30;50.30;;;;;;4979953;28;20046;-81
2023/03/11 04:36:41;;;;;;;7.18;6.32;;;4.30;50.30;;;;;;4987696;28;20030;-82
2023/03/11 04:39:09;;;;;;;7.13;6.43;;;4.40;50.50;;;;;;4990330;28;20042;-85
2023/03/11 04:41:40;;;;;;;6.18;5.68;;;4.30;50.20;;;;;;4984468;28;20510;-82
2023/03/11 04:44:07;;;;;;;6.95;6.25;;;4.30;50.20;;;;;;4986065;28;20722;-82
2023/03/11 04:46:34;;;;;;;6.80;6.13;;;4.40;50.40;;;;;;4990101;28;20572;-81
2023/03/11 04:49:04;;;;;;;7.88;5.70;;;4.40;50.30;;;;;;4993760;28;20054;-81
2023/03/11 04:51:32;;;;;;;8.63;6.43;;;4.40;50.30;;;;;;4989515;28;20177;-81
2023/03/11 04:53:58;;;;;;;6.75;6.05;;;4.40;50.30;;;;;;4991808;28;20355;-83
2023/03/11 04:56:27;;;;;;;7.68;6.72;;;4.40;50.30;;;;;;4991447;28;20057;-84
2023/03/11 04:58:52;;;;;;;6.93;6.07;;;4.40;50.30;;;;;;4990597;28;20058;-84
2023/03/11 05:01:19;;;;;;;7.65;6.00;;;4.40;50.30;;;;;;4990265;28;20397;-84
2023/03/11 05:03:46;;;;;;;6.68;5.93;;;4.40;50.30;;;;;;4990580;28;20026;-85
2023/03/11 05:06:11;;;;;;;6.57;5.80;;;4.40;50.30;;;;;;4991717;28;20037;-83
2023/03/11 05:08:38;;;;;;;6.90;5.97;;;4.40;50.30;;;;;;4990784;28;20045;-83
2023/03/11 05:11:04;;;;;;;6.60;5.68;;;4.40;50.30;;;;;;4990703;28;20031;-89
2023/03/11 05:13:30;;;;;;;8.43;5.88;;;4.40;50.20;;;;;;4991883;28;20031;-84
2023/03/11 05:15:56;;;;;;;7.63;5.45;;;4.40;50.20;;;;;;4993468;28;20030;-84
2023/03/11 05:18:22;;;;;;;5.88;5.38;;;4.40;50.20;;;;;;4994546;28;20054;-84
2023/03/11 05:20:50;;;;;;;6.88;5.53;;;4.40;50.20;;;;;;4990045;28;20130;-85
2023/03/11 05:23:18;;;;;;;6.13;5.50;;;4.50;50.40;;;;;;4993674;28;20061;-82
2023/03/11 05:25:44;;;;;;;12.98;5.90;;;4.50;50.40;;;;;;4991064;28;20026;-85
2023/03/11 05:28:13;;;;;;;6.40;5.63;;;4.50;50.40;;;;;;4991030;28;20084;-86
2023/03/11 05:30:46;;;;;;;8.57;5.80;;;4.50;50.30;;;;;;4981291;28;20053;-83
2023/03/11 05:33:12;;;;;;;6.07;4.97;;;4.50;50.30;;;;;;4973657;28;20015;-92
2023/03/11 05:35:38;;;;;;;5.13;4.60;;;4.50;50.30;;;;;;4990491;28;20035;-85
2023/03/11 05:38:06;;;;;;;6.40;5.60;;;4.50;50.30;;;;;;4989849;28;20078;-85
2023/03/11 05:40:32;;;;;;;5.68;5.05;;;4.50;50.30;;;;;;4991203;28;20042;-87
2023/03/11 05:42:58;;;;;;;6.45;5.82;;;4.60;50.40;;;;;;4989989;28;20090;-87
2023/03/11 05:45:26;;;;;;;6.40;5.57;;;4.60;50.40;;;;;;4989934;28;20038;-88
2023/03/11 05:47:55;;;;;;;7.90;5.70;;;4.60;50.40;;;;;;4989902;28;20189;-87
2023/03/11 05:50:21;;;;;;;9.82;5.60;;;4.60;50.40;;;;;;4975515;28;20584;-84
2023/03/11 05:52:48;;;;;;;5.53;5.03;;;4.60;50.40;;;;;;4987772;28;20406;-83
2023/03/11 05:55:15;;;;;;;6.57;5.07;;;4.60;50.30;;;;;;4986319;28;20045;-83
2023/03/11 05:57:44;;;;;;;8.30;4.97;;;4.60;50.30;;;;;;4988299;28;20038;-83
2023/03/11 06:00:11;;;;;;;7.65;6.82;;;4.60;50.30;;;;;;4972825;28;20045;-83
2023/03/11 06:02:42;;;;;;;6.53;4.55;;;4.60;50.30;;;;;;4972509;28;20023;-81
2023/03/11 06:05:11;;;;;;;6.50;4.82;;;4.60;50.30;;;;;;4987757;28;20038;-81
2023/03/11 06:07:41;;;;;;;8.15;5.00;;;4.60;50.30;;;;;;4988843;28;20029;-80
2023/03/11 06:10:08;;;;;;;5.05;4.55;;;4.60;50.30;;;;;;4993599;28;20034;-81
2023/03/11 06:12:34;;;;;;;5.18;4.55;;;4.60;50.20;;;;;;4969247;28;20026;-79
2023/03/11 06:15:10;;;;;;;7.13;4.97;;;4.70;50.40;;;;;;5000160;28;20041;-81
2023/03/11 06:17:37;;;;;;;5.38;4.28;;;4.70;50.40;;;;;;4984048;28;20085;-82
2023/03/11 06:20:05;;;;;;;7.03;5.45;;;4.70;50.30;;;;;;5001494;28;20077;-81
2023/03/11 06:22:32;;;;;;;4.88;4.38;;;4.70;50.30;;;;;;5009113;28;20064;-81
2023/03/11 06:24:58;;;;;;;6.15;4.80;;;4.70;50.30;;;;;;4996181;28;20088;-77
2023/03/11 06:27:24;;;;;;;8.25;4.68;;;4.70;50.30;;;;;;5001535;28;20101;-79
2023/03/11 06:29:53;;;;;;;7.00;4.63;;;4.80;50.40;;;;;;5011160;28;20064;-80
2023/03/11 06:32:21;;;;;;;5.72;4.07;;;4.80;50.40;;;;;;5001417;28;20051;-80
2023/03/11 06:34:52;;;;;;;5.40;4.45;;;4.80;50.30;;;;;;5012729;28;20025;-79
2023/03/11 06:37:19;;;;;;;4.38;3.83;;;4.80;50.30;;;;;;5002101;28;20042;-81
2023/03/11 06:39:45;;;;;;;4.38;3.97;;;4.80;50.30;;;;;;5005240;28;20038;-83
2023/03/11 06:42:18;;;;;;;5.60;4.07;;;4.90;50.60;;;;;;4987486;28;20090;-81
2023/03/11 06:44:47;;;;;;;7.13;5.05;;;4.90;50.70;;;;;;5004106;28;20029;-80
2023/03/11 06:47:13;;;;;;;5.95;4.40;;;5.00;51.20;;;;;;5003062;28;20038;-83
2023/03/11 06:49:41;;;;;;;6.18;4.35;;;5.10;51.90;;;;;;5003856;28;20042;-81
2023/03/11 06:52:08;;;;;;;8.32;4.75;;;5.30;52.70;;;;;;4990860;28;20035;-78
2023/03/11 06:54:34;;;;;;;6.25;3.85;;;5.60;53.20;;;;;;5000805;28;20065;-82
2023/03/11 06:57:01;;;;;;;7.05;4.30;;;5.80;53.40;;;;;;4998409;28;20496;-83
2023/03/11 06:59:27;;;;;;;7.63;3.75;;;6.00;53.50;;;;;;4997541;28;20045;-79
2023/03/11 07:01:54;;;;;;;5.28;3.97;;;6.20;53.60;;;;;;4985261;28;20026;-81
2023/03/11 07:04:20;;;;;;;9.45;3.92;;;6.20;53.40;;;;;;4987046;28;20070;-81
2023/03/11 07:06:47;;;;;;;5.82;3.65;;;6.20;53.50;;;;;;4993170;28;20034;-81
2023/03/11 07:09:18;;;;;;;6.93;3.75;;;6.20;53.20;;;;;;4981143;28;20030;-80
2023/03/11 07:11:45;;;;;;;6.55;3.90;;;6.20;53.10;;;;;;4980483;28;20037;-77
2023/03/11 07:14:16;;;;;;;5.55;3.55;;;6.20;53.10;;;;;;4981469;28;20774;-77
2023/03/11 07:16:46;;;;;;;4.57;4.00;;;6.20;53.00;;;;;;4983851;28;20417;-78
2023/03/11 07:19:27;;;;;;;4.28;3.70;;;6.20;53.00;;;;;;4979211;28;20042;-78
2023/03/11 07:21:53;;;;;;;5.25;3.78;;;6.20;52.90;;;;;;4978696;28;20355;-80
2023/03/11 07:24:20;;;;;;;5.15;3.78;;;6.20;52.90;;;;;;4982029;28;20534;-79
2023/03/11 07:26:46;;;;;;;5.28;3.72;;;6.20;52.90;;;;;;4980345;28;20104;-78
2023/03/11 07:29:12;;;;;;;12.65;3.78;;;6.20;52.80;;;;;;4958220;28;20038;-78
2023/03/11 07:31:40;;;;;;;5.88;3.97;;;6.20;52.80;;;;;;4983020;28;20525;-84
2023/03/11 07:34:10;;;;;;;5.10;3.40;;;6.30;52.90;;;;;;4983200;28;20378;-81
2023/03/11 07:36:38;;;;;;;5.43;3.70;;;6.40;53.10;;;;;;4985110;28;20384;-79
2023/03/11 07:39:05;;;;;;;5.90;3.60;;;6.50;53.60;;;;;;4976270;28;20474;-79
2023/03/11 07:41:33;;;;;;;8.25;3.42;;;6.70;54.10;;;;;;4989200;28;20065;-79
2023/03/11 07:44:00;;;;;;;7.22;4.05;;;7.00;54.30;;;;;;4981703;28;20253;-79
2023/03/11 07:46:28;;;;;;;6.78;4.07;;;7.10;54.10;;;;;;4982024;28;20085;-81
2023/03/11 07:48:55;;;;;;;7.65;3.22;;;7.20;54.00;;;;;;4980929;28;20398;-80
2023/03/11 07:51:26;;;;;;;8.15;3.33;;;7.20;53.80;;;;;;4976987;28;20524;-78
2023/03/11 07:53:54;;;;;;;8.77;3.38;;;7.20;53.60;;;;;;4983396;28;20034;-78
2023/03/11 07:56:22;;;;;;;6.65;3.38;;;7.20;53.50;;;;;;4980250;28;20034;-79
2023/03/11 07:58:49;;;;;;;6.60;3.17;;;7.30;53.60;;;;;;4980646;28;20133;-79
2023/03/11 08:01:19;;;;;;;4.90;2.88;;;7.20;53.30;;;;;;4981929;28;20035;-79
2023/03/11 08:03:47;;;;;;;4.65;3.30;;;7.30;53.40;;;;;;4982483;28;20039;-80
2023/03/11 08:06:14;;;;;;;8.15;3.95;;;7.30;53.30;;;;;;4978769;28;20038;-79
2023/03/11 08:08:41;;;;;;;10.48;3.70;;;7.30;53.10;;;;;;4985917;28;20524;-79
2023/03/11 08:11:08;;;;;;;6.78;3.17;;;7.30;53.00;;;;;;4952081;28;20050;-78
2023/03/11 08:13:37;;;;;;;8.05;3.38;;;7.30;52.80;;;;;;4970795;28;20034;-82
2023/03/11 08:16:04;;;;;;;7.13;2.83;;;7.40;52.90;;;;;;4976053;28;20610;-83
2023/03/11 08:18:31;;;;;;;4.75;2.75;;;7.40;52.70;;;;;;4991042;28;20172;-80
2023/03/11 08:20:57;;;;;;;3.85;2.80;;;7.40;52.60;;;;;;4980870;28;20042;-80
2023/03/11 08:23:23;;;;;;;6.28;3.15;;;7.50;52.60;;;;;;4986855;28;20220;-80
2023/03/11 08:25:49;;;;;;;6.05;3.42;;;7.60;52.60;;;;;;4978005;28;20543;-85
2023/03/11 08:28:18;;;;;;;5.00;2.85;;;7.60;52.40;;;;;;4991142;28;20354;-82
2023/03/11 08:30:45;;;;;;;6.13;3.67;;;7.70;52.40;;;;;;4988117;28;20034;-85
2023/03/11 08:33:11;;;;;;;4.85;3.60;;;7.70;52.20;;;;;;4982683;28;20055;-82
2023/03/11 08:35:37;;;;;;;4.43;3.13;;;7.80;52.20;;;;;;4984752;28;20042;-80
2023/03/11 08:38:03;;;;;;;5.88;2.92;;;7.90;52.40;;;;;;4980564;28;20084;-80
2023/03/11 08:40:29;;;;;;;9.75;3.85;;;8.00;52.80;;;;;;4984176;28;20488;-81
2023/03/11 08:42:56;;;;;;;7.55;2.75;;;8.20;53.10;;;;;;4981257;28;20102;-80
2023/03/11 08:45:22;;;;;;;8.35;2.70;;;8.40;53.30;;;;;;4964541;28;20038;-79
2023/03/11 08:47:48;;;;;;;3.50;3.10;;;8.70;53.60;;;;;;4980826;28;20054;-78
2023/03/11 08:50:16;;;;;;;7.22;3.08;;;8.80;53.50;;;;;;4988337;28;20031;-81
2023/03/11 08:52:43;;;;;;;3.95;2.90;;;9.00;53.70;;;;;;4984749;28;20038;-79
2023/03/11 08:55:13;;;;;;;6.15;3.33;;;9.10;53.60;;;;;;4981263;28;20030;-79
2023/03/11 08:57:39;;;;;;;6.85;2.70;;;9.30;53.70;;;;;;4954125;28;20563;-80
2023/03/11 09:00:07;;;;;;;4.85;3.20;;;9.40;53.70;;;;;;4981050;28;20156;-80
2023/03/11 09:02:33;;;;;;;5.13;2.80;;;9.50;53.80;;;;;;4983965;28;20121;-78
2023/03/11 09:04:59;;;;;;;3.35;2.80;;;9.50;53.70;;;;;;4986300;28;20132;-79
2023/03/11 09:07:25;;;;;;;3.88;2.95;;;9.60;53.70;;;;;;4981670;28;20068;-79
2023/03/11 09:09:51;;;;;;;4.50;3.00;;;9.70;53.80;;;;;;4989598;28;20319;-79
2023/03/11 09:12:17;;;;;;;5.60;3.03;;;9.80;53.80;;;;;;4985779;28;20033;-79
2023/03/11 09:14:43;;;;;;;10.50;3.05;;;10.00;54.00;;;;;;4994009;28;20034;-79
2023/03/11 09:17:11;;;;;;;4.22;2.78;;;10.00;53.80;;;;;;4991216;28;20085;-80
2023/03/11 09:19:37;;;;;;;6.88;2.85;;;10.20;54.10;;;;;;4983974;28;20050;-80
2023/03/11 09:22:03;;;;;;;2.47;2.22;;;10.20;53.80;;;;;;4982365;28;20378;-80
2023/03/11 09:24:33;;;;;;;3.95;2.60;;;10.40;54.00;;;;;;4984305;28;20086;-78
2023/03/11 09:27:00;;;;;;;4.60;2.70;;;10.50;53.90;;;;;;4985867;28;20030;-79
2023/03/11 09:29:26;;;;;;;4.43;2.45;;;10.60;53.90;;;;;;4978834;28;20049;-80
2023/03/11 09:31:53;;;;;;;4.18;2.75;;;10.70;54.00;;;;;;4982364;28;20141;-80
2023/03/11 09:34:19;;;;;;;5.32;2.40;;;10.80;54.00;;;;;;4965756;28;20120;-79
2023/03/11 09:36:45;;;;;;;5.40;2.75;;;10.90;54.00;;;;;;4981322;28;20045;-79
2023/03/11 09:39:12;;;;;;;3.35;2.75;;;11.00;54.00;;;;;;4987186;28;20050;-80
2023/03/11 09:42:15;;;;;;;5.30;2.92;;;11.00;53.80;;;;;;4992552;28;20038;-79
2023/03/11 09:44:59;;;;;;;5.13;2.13;;;11.10;53.80;;;;;;4960623;28;20242;-81
2023/03/11 09:47:44;;;;;;;3.88;2.15;;;11.20;53.70;;;;;;4980007;28;20134;-80
2023/03/11 09:50:26;;;;;;;4.53;2.38;;;11.20;53.60;;;;;;4992146;28;20034;-79
2023/03/11 09:53:10;;;;;;;5.00;3.33;;;11.30;53.60;;;;;;4977742;28;20382;-79
2023/03/11 09:55:46;;;;;;;4.50;2.80;;;11.40;53.70;;;;;;4980654;28;20034;-79
2023/03/11 09:58:43;;;;;;;5.70;2.55;;;11.40;53.50;;;;;;4975983;28;20138;-80
2023/03/11 10:01:28;;;;;;;5.45;2.28;;;11.50;53.60;;;;;;4982459;28;20472;-79
2023/03/11 10:03:56;;;;;;;7.05;2.58;;;11.60;54.20;;;;;;4983140;28;20045;-81
2023/03/11 10:06:25;;;;;;;2.15;1.80;;;11.70;53.70;;;;;;4984421;28;20453;-79
2023/03/11 10:09:22;;;;;;;3.05;2.20;;;11.90;53.80;;;;;;4987596;28;20030;-79
2023/03/11 10:12:07;;;;;;;4.68;2.40;;;12.00;53.80;;;;;;4983610;28;20038;-82
2023/03/11 10:14:59;;;;;;;4.45;2.05;;;12.20;53.80;;;;;;4984081;28;20038;-82
2023/03/11 10:17:49;;;;;;;6.33;2.30;;;12.30;53.70;;;;;;4995404;28;20124;-84
2023/03/11 10:20:26;;;;;;;6.28;1.98;;;12.50;53.70;;;;;;4981333;28;20412;-81
2023/03/11 10:23:15;;;;;;;4.05;2.13;;;12.70;53.70;;;;;;4983699;28;20042;-80
2023/03/11 10:26:28;;;;;;;5.80;2.40;;;13.00;53.80;;;;;;4977385;28;20053;-81
2023/03/11 10:29:01;;;;;;;5.28;2.15;;;13.20;53.80;;;;;;4940480;28;20039;-81
2023/03/11 10:31:36;;;;;;;4.32;1.60;;;13.40;53.70;;;;;;4936022;28;20050;-80
2023/03/11 10:34:18;;;;;;;4.53;1.70;;;13.70;54.10;;;;;;4971456;28;20096;-82
2023/03/11 10:37:09;;;;;;;3.45;2.10;;;13.90;53.70;;;;;;4982082;28;20085;-81
2023/03/11 10:39:36;;;;;;;4.40;2.45;;;14.10;53.50;;;;;;4983563;28;20600;-80
2023/03/11 10:42:05;;;;;;;3.25;1.80;;;14.30;53.50;;;;;;4985297;28;20045;-81
2023/03/11 10:44:39;;;;;;;3.08;1.80;;;14.50;53.50;;;;;;4974387;28;20125;-81
2023/03/11 10:47:11;;;;;;;2.65;1.70;;;14.60;53.30;;;;;;4977519;28;20041;-81
2023/03/11 10:49:37;;;;;;;2.83;2.30;;;14.70;53.10;;;;;;4985530;28;20130;-80
2023/03/11 10:52:03;;;;;;;3.63;1.85;;;14.90;53.10;;;;;;4983125;28;20060;-82
2023/03/11 10:54:45;;;;;;;4.15;1.73;;;15.10;53.10;;;;;;4983845;28;20089;-83
2023/03/11 10:57:25;;;;;;;3.42;1.80;;;15.20;52.80;;;;;;4986639;28;20452;-81
2023/03/11 10:59:56;;;;;;;2.53;1.70;;;15.30;52.70;;;;;;4983523;28;20131;-80
2023/03/11 11:02:39;;;;;;;2.38;1.70;;;15.40;52.60;;;;;;4985206;28;20541;-81
2023/03/11 11:05:22;;;;;;;2.35;1.58;;;15.50;52.50;;;;;;4983359;28;20879;-81
2023/03/11 11:07:52;;;;;;;2.93;2.33;;;15.60;52.20;;;;;;4983664;28;20445;-82
2023/03/11 11:10:23;;;;;;;1.75;1.25;;;15.70;52.40;;;;;;4987434;28;20036;-81
2023/03/11 11:12:57;;;;;;;4.82;1.77;;;15.80;52.30;;;;;;4963242;28;20282;-81
2023/03/11 11:15:25;;;;;;;2.53;1.33;;;15.80;52.20;;;;;;4983580;28;20121;-82
2023/03/11 11:17:55;;;;;;;3.45;1.45;;;15.90;52.10;;;;;;4981341;28;20456;-82
2023/03/11 11:20:23;;;;;;;4.18;1.73;;;15.90;51.90;;;;;;4982388;28;20074;-80
2023/03/11 11:22:54;;;;;;;2.63;1.90;;;15.90;51.80;;;;;;4981930;28;20031;-81
2023/03/11 11:25:37;;;;;;;2.10;1.50;;;15.90;51.50;;;;;;4983779;28;20034;-81
2023/03/11 11:28:17;;;;;;;4.15;1.70;;;16.00;51.50;;;;;;4970125;28;20468;-80
2023/03/11 11:30:57;;;;;;;4.20;1.30;;;16.00;51.40;;;;;;4984693;28;20950;-79
2023/03/11 11:33:32;;;;;;;2.17;1.20;;;16.00;51.20;;;;;;4980042;28;20054;-81
2023/03/11 11:36:02;;;;;;;2.63;1.63;;;15.90;51.10;;;;;;4964836;28;20034;-81
2023/03/11 11:38:30;;;;;;;2.10;1.65;;;15.80;51.00;;;;;;4980916;28;20069;-81
2023/03/11 11:41:00;;;;;;;4.75;1.50;;;15.80;51.10;;;;;;4991042;28;20041;-81
2023/03/11 11:43:53;;;;;;;3.20;1.75;;;15.70;50.90;;;;;;4981302;28;20030;-81
2023/03/11 11:46:34;;;;;;;5.00;1.85;;;15.60;50.70;;;;;;4988943;28;20030;-87
2023/03/11 11:49:21;;;;;;;3.33;1.27;;;15.60;50.90;;;;;;4994721;28;20038;-86
2023/03/11 11:52:12;;;;;;;2.65;1.17;;;15.50;50.80;;;;;;4986586;28;20038;-86
2023/03/11 11:55:05;;;;;;;3.45;1.08;;;15.50;50.90;;;;;;4989959;28;20057;-87
2023/03/11 11:57:31;;;;;;;3.50;1.45;;;15.60;51.50;;;;;;4988196;28;20030;-81
2023/03/11 12:00:04;;;;;;;4.38;1.45;;;15.60;51.00;;;;;;4991999;28;20092;-89
2023/03/11 12:02:46;;;;;;;5.53;2.25;;;15.80;51.00;;;;;;4996480;28;20091;-82
2023/03/11 12:05:31;;;;;;;3.30;1.30;;;15.90;50.90;;;;;;4989778;28;20038;-82
2023/03/11 12:08:21;;;;;;;4.57;1.20;;;15.90;49.90;;;;;;4979517;28;20128;-86
2023/03/11 12:11:02;;;;;;;2.40;1.35;;;15.80;49.60;;;;;;4991236;28;20026;-88
2023/03/11 12:13:54;;;;;;;2.13;1.30;;;15.80;49.70;;;;;;4994280;28;20048;-91
2023/03/11 12:16:48;;;;;;;2.78;1.33;;;15.90;49.90;;;;;;5000806;28;20174;-88
2023/03/11 12:19:30;;;;;;;4.57;1.08;;;16.00;50.00;;;;;;4989194;28;20042;-88
2023/03/11 12:22:22;;;;;;;1.77;0.90;;;16.30;50.20;;;;;;4992480;28;20347;-93
2023/03/11 12:25:07;;;;;;;3.65;1.20;;;16.60;50.30;;;;;;4972679;28;20121;-89
2023/03/11 12:27:58;;;;;;;2.28;1.20;;;16.80;50.30;;;;;;4989398;28;20065;-93
2023/03/11 12:30:37;;;;;;;3.75;1.20;;;16.90;50.40;;;;;;4972333;28;20069;-85
2023/03/11 12:33:11;;;;;;;1.92;1.30;;;17.00;50.40;;;;;;4984976;28;20034;-85
2023/03/11 12:35:37;;;;;;;6.00;1.23;;;17.10;50.50;;;;;;4985680;28;20022;-79
2023/03/11 12:38:12;;;;;;;7.68;3.60;;;17.20;50.70;;;;;;4987014;28;21049;-85
2023/03/11 12:40:41;;;;;;;79.00;57.25;;;17.20;50.90;;;;;;4995532;28;20049;-81
2023/03/11 12:43:23;;;;;;;56.33;38.80;;;17.30;51.60;;;;;;4988347;28;20022;-84
2023/03/11 12:45:51;;;;;;;55.55;38.17;;;17.50;52.80;;;;;;4986219;28;20046;-83
2023/03/11 12:48:34;;;;;;;46.50;37.83;;;17.50;53.00;;;;;;4988974;28;20061;-85
2023/03/11 12:51:04;;;;;;;43.58;34.17;;;17.70;54.20;;;;;;4985379;28;20038;-80
2023/03/11 12:53:49;;;;;;;38.08;31.25;;;17.70;54.50;;;;;;4986518;28;20030;-79
2023/03/11 12:56:34;;;;;;;38.30;28.02;;;17.80;54.90;;;;;;4982664;28;20038;-79
2023/03/11 12:59:11;;;;;;;32.28;25.15;;;17.70;54.60;;;;;;4986560;28;20568;-79
2023/03/11 13:01:52;;;;;;;27.88;22.40;;;17.60;54.40;;;;;;4983619;28;20042;-79
2023/03/11 13:05:06;;;;;;;28.13;22.00;;;17.50;54.30;;;;;;4984300;28;20313;-79
2023/03/11 13:07:42;;;;;;;22.77;17.90;;;17.40;54.10;;;;;;4985677;28;20142;-80
2023/03/11 13:10:33;;;;;;;23.25;16.65;;;17.20;53.90;;;;;;4962251;28;20125;-91
2023/03/11 13:13:00;;;;;;;25.30;15.32;;;17.10;53.80;;;;;;4990673;28;20114;-90